sensor_id;sensor_type;location;lat;lon;timestamp;temperature;humidity
1534;DHT22;760;48.822;9.304;2023-06-04T04:06:33;13.00;99.90
1534;DHT22;760;48.822;9.304;2023-06-04T04:08:58;13.00;99.90
1534;DHT22;760;48.822;9.304;2023-06-04T04:11:24;13.10;99.90
1534;DHT22;760;48.822;9.304;2023-06-04T04:13:51;13.10;99.90
1534;DHT22;760;48.822;9.304;2023-06-04T04:16:16;13.20;99.90
1534;DHT22;760;48.822;9.304;2023-06-04T04:18:42;13.30;99.90
1534;DHT22;760;48.822;9.304;2023-06-04T04:21:09;13.40;99.90
1534;DHT22;760;48.822;9.304;2023-06-04T04:23:37;13.40;99.90
1534;DHT22;760;48.822;9.304;2023-06-04T04:26:03;13.50;99.90
1534;DHT22;760;48.822;9.304;2023-06-04T04:28:29;13.70;99.90
1534;DHT22;760;48.822;9.304;2023-06-04T04:30:55;13.90;99.90
1534;DHT22;760;48.822;9.304;2023-06-04T04:33:28;14.10;99.90
1534;DHT22;760;48.822;9.304;2023-06-04T04:35:58;14.30;99.90
1534;DHT22;760;48.822;9.304;2023-06-04T04:38:25;14.50;99.90
1534;DHT22;760;48.822;9.304;2023-06-04T04:40:50;14.80;99.90
1534;DHT22;760;48.822;9.304;2023-06-04T04:43:33;14.90;99.90
1534;DHT22;760;48.822;9.304;2023-06-04T04:45:59;15.10;99.90
1534;DHT22;760;48.822;9.304;2023-06-04T04:48:25;15.20;99.90
1534;DHT22;760;48.822;9.304;2023-06-04T04:50:52;15.20;99.90
1534;DHT22;760;48.822;9.304;2023-06-04T04:53:17;15.20;99.90
1534;DHT22;760;48.822;9.304;2023-06-04T04:55:43;15.20;99.90
1534;DHT22;760;48.822;9.304;2023-06-04T04:58:09;15.20;99.90
1534;DHT22;760;48.822;9.304;2023-06-04T05:00:34;15.40;99.90
1534;DHT22;760;48.822;9.304;2023-06-04T05:03:00;15.50;99.90
1534;DHT22;760;48.822;9.304;2023-06-04T05:05:25;15.60;99.90
1534;DHT22;760;48.822;9.304;2023-06-04T05:07:51;15.70;99.90
1534;DHT22;760;48.822;9.304;2023-06-04T05:10:16;15.80;99.30
1534;DHT22;760;48.822;9.304;2023-06-04T05:12:58;15.80;99.00
1534;DHT22;760;48.822;9.304;2023-06-04T05:15:25;15.80;99.20
1534;DHT22;760;48.822;9.304;2023-06-04T05:17:52;15.80;97.30
1534;DHT22;760;48.822;9.304;2023-06-04T05:20:18;15.80;96.80
1534;DHT22;760;48.822;9.304;2023-06-04T05:22:44;15.90;95.50
1534;DHT22;760;48.822;9.304;2023-06-04T05:25:11;16.00;94.30
1534;DHT22;760;48.822;9.304;2023-06-04T05:27:37;16.00;93.10
1534;DHT22;760;48.822;9.304;2023-06-04T05:30:04;16.00;92.40
1534;DHT22;760;48.822;9.304;2023-06-04T05:32:30;16.00;91.60
1534;DHT22;760;48.822;9.304;2023-06-04T05:34:58;16.10;91.50
1534;DHT22;760;48.822;9.304;2023-06-04T05:37:25;16.20;91.20
1534;DHT22;760;48.822;9.304;2023-06-04T05:39:57;16.40;91.40
1534;DHT22;760;48.822;9.304;2023-06-04T05:42:23;16.60;90.50
1534;DHT22;760;48.822;9.304;2023-06-04T05:44:49;17.00;88.30
1534;DHT22;760;48.822;9.304;2023-06-04T05:47:16;17.20;86.40
1534;DHT22;760;48.822;9.304;2023-06-04T05:49:42;17.20;85.90
1534;DHT22;760;48.822;9.304;2023-06-04T05:52:07;17.40;85.00
1534;DHT22;760;48.822;9.304;2023-06-04T05:54:33;17.50;86.40
1534;DHT22;760;48.822;9.304;2023-06-04T05:56:59;17.70;85.40
1534;DHT22;760;48.822;9.304;2023-06-04T05:59:24;17.90;83.90
1534;DHT22;760;48.822;9.304;2023-06-04T06:01:50;17.90;84.10
1534;DHT22;760;48.822;9.304;2023-06-04T06:04:16;17.90;82.30
1534;DHT22;760;48.822;9.304;2023-06-04T06:06:42;18.00;81.10
1534;DHT22;760;48.822;9.304;2023-06-04T06:09:09;18.10;80.50
1534;DHT22;760;48.822;9.304;2023-06-04T06:11:36;18.00;80.10
1534;DHT22;760;48.822;9.304;2023-06-04T06:14:01;18.10;81.00
1534;DHT22;760;48.822;9.304;2023-06-04T06:16:27;18.10;81.60
1534;DHT22;760;48.822;9.304;2023-06-04T06:18:52;18.10;82.00
1534;DHT22;760;48.822;9.304;2023-06-04T06:21:19;18.10;81.80
1534;DHT22;760;48.822;9.304;2023-06-04T06:23:45;18.20;81.60
1534;DHT22;760;48.822;9.304;2023-06-04T06:26:10;18.20;79.90
1534;DHT22;760;48.822;9.304;2023-06-04T06:28:37;18.40;79.00
1534;DHT22;760;48.822;9.304;2023-06-04T06:31:03;18.40;79.30
1534;DHT22;760;48.822;9.304;2023-06-04T06:33:28;18.50;79.40
1534;DHT22;760;48.822;9.304;2023-06-04T06:35:54;18.60;80.10
1534;DHT22;760;48.822;9.304;2023-06-04T06:38:19;18.50;79.60
1534;DHT22;760;48.822;9.304;2023-06-04T06:40:45;18.60;79.50
1534;DHT22;760;48.822;9.304;2023-06-04T06:43:11;18.70;79.80
1534;DHT22;760;48.822;9.304;2023-06-04T06:45:37;18.80;79.50
1534;DHT22;760;48.822;9.304;2023-06-04T06:48:03;18.80;78.90
1534;DHT22;760;48.822;9.304;2023-06-04T06:50:29;18.90;79.50
1534;DHT22;760;48.822;9.304;2023-06-04T06:52:55;19.10;81.20
1534;DHT22;760;48.822;9.304;2023-06-04T06:55:20;19.20;80.00
1534;DHT22;760;48.822;9.304;2023-06-04T06:57:47;19.40;79.20
1534;DHT22;760;48.822;9.304;2023-06-04T07:00:13;19.40;79.70
1534;DHT22;760;48.822;9.304;2023-06-04T07:02:39;19.50;79.70
1534;DHT22;760;48.822;9.304;2023-06-04T07:05:04;19.60;79.20
1534;DHT22;760;48.822;9.304;2023-06-04T07:07:30;19.70;77.60
1534;DHT22;760;48.822;9.304;2023-06-04T07:09:56;19.80;77.80
1534;DHT22;760;48.822;9.304;2023-06-04T07:12:22;19.80;77.40
1534;DHT22;760;48.822;9.304;2023-06-04T07:14:47;19.90;77.40
1534;DHT22;760;48.822;9.304;2023-06-04T07:17:13;20.00;77.30
1534;DHT22;760;48.822;9.304;2023-06-04T07:19:38;20.10;78.00
1534;DHT22;760;48.822;9.304;2023-06-04T07:22:04;20.20;77.30
1534;DHT22;760;48.822;9.304;2023-06-04T07:24:30;20.50;77.40
1534;DHT22;760;48.822;9.304;2023-06-04T07:26:56;20.90;75.80
1534;DHT22;760;48.822;9.304;2023-06-04T07:29:22;21.50;75.10
1534;DHT22;760;48.822;9.304;2023-06-04T07:31:47;22.10;73.10
1534;DHT22;760;48.822;9.304;2023-06-04T07:34:13;22.70;73.10
1534;DHT22;760;48.822;9.304;2023-06-04T07:36:38;23.50;71.70
1534;DHT22;760;48.822;9.304;2023-06-04T07:39:04;24.40;69.90
1534;DHT22;760;48.822;9.304;2023-06-04T07:41:30;25.40;65.40
1534;DHT22;760;48.822;9.304;2023-06-04T07:43:55;26.40;63.00
1534;DHT22;760;48.822;9.304;2023-06-04T07:46:21;27.30;62.10
1534;DHT22;760;48.822;9.304;2023-06-04T07:48:47;28.20;59.30
1534;DHT22;760;48.822;9.304;2023-06-04T07:51:13;29.00;58.30
1534;DHT22;760;48.822;9.304;2023-06-04T07:53:39;29.90;56.60
1534;DHT22;760;48.822;9.304;2023-06-04T07:56:05;30.50;55.60
1534;DHT22;760;48.822;9.304;2023-06-04T07:58:31;30.90;54.20
1534;DHT22;760;48.822;9.304;2023-06-04T08:00:56;30.80;53.30
1534;DHT22;760;48.822;9.304;2023-06-04T08:03:22;30.90;52.40
1534;DHT22;760;48.822;9.304;2023-06-04T08:05:48;30.90;52.60
1534;DHT22;760;48.822;9.304;2023-06-04T08:08:14;31.10;53.00
1534;DHT22;760;48.822;9.304;2023-06-04T08:10:40;31.20;53.40
1534;DHT22;760;48.822;9.304;2023-06-04T08:13:06;31.30;52.40
1534;DHT22;760;48.822;9.304;2023-06-04T08:15:31;31.90;52.40
1534;DHT22;760;48.822;9.304;2023-06-04T08:17:57;32.00;51.50
1534;DHT22;760;48.822;9.304;2023-06-04T08:20:23;32.50;51.50
1534;DHT22;760;48.822;9.304;2023-06-04T08:22:49;33.00;51.20
1534;DHT22;760;48.822;9.304;2023-06-04T08:25:15;33.30;50.30
1534;DHT22;760;48.822;9.304;2023-06-04T08:27:41;33.20;50.30
1534;DHT22;760;48.822;9.304;2023-06-04T08:30:08;33.40;50.00
1534;DHT22;760;48.822;9.304;2023-06-04T08:32:34;33.40;50.80
1534;DHT22;760;48.822;9.304;2023-06-04T08:35:00;33.80;50.10
1534;DHT22;760;48.822;9.304;2023-06-04T08:37:25;33.90;49.70
1534;DHT22;760;48.822;9.304;2023-06-04T08:39:51;34.40;49.30
1534;DHT22;760;48.822;9.304;2023-06-04T08:42:44;34.90;48.40
1534;DHT22;760;48.822;9.304;2023-06-04T08:45:14;35.20;47.10
1534;DHT22;760;48.822;9.304;2023-06-04T08:47:47;35.40;47.10
1534;DHT22;760;48.822;9.304;2023-06-04T08:50:17;35.40;46.40
1534;DHT22;760;48.822;9.304;2023-06-04T08:52:43;35.40;46.10
1534;DHT22;760;48.822;9.304;2023-06-04T08:55:09;35.30;46.00
1534;DHT22;760;48.822;9.304;2023-06-04T08:57:36;35.30;45.90
1534;DHT22;760;48.822;9.304;2023-06-04T09:00:03;35.10;46.80
1534;DHT22;760;48.822;9.304;2023-06-04T09:02:30;35.00;46.40
1534;DHT22;760;48.822;9.304;2023-06-04T09:04:56;35.00;45.70
1534;DHT22;760;48.822;9.304;2023-06-04T09:07:22;34.80;45.50
1534;DHT22;760;48.822;9.304;2023-06-04T09:09:49;35.10;45.90
1534;DHT22;760;48.822;9.304;2023-06-04T09:12:23;35.10;44.60
1534;DHT22;760;48.822;9.304;2023-06-04T09:14:49;34.60;45.10
1534;DHT22;760;48.822;9.304;2023-06-04T09:17:21;33.90;45.70
1534;DHT22;760;48.822;9.304;2023-06-04T09:19:48;34.00;45.70
1534;DHT22;760;48.822;9.304;2023-06-04T09:22:13;34.20;45.10
1534;DHT22;760;48.822;9.304;2023-06-04T09:24:46;34.40;45.60
1534;DHT22;760;48.822;9.304;2023-06-04T09:27:15;34.40;45.70
1534;DHT22;760;48.822;9.304;2023-06-04T09:29:52;33.70;44.90
1534;DHT22;760;48.822;9.304;2023-06-04T09:32:27;33.60;45.70
1534;DHT22;760;48.822;9.304;2023-06-04T09:34:54;34.00;45.50
1534;DHT22;760;48.822;9.304;2023-06-04T09:37:21;34.30;45.00
1534;DHT22;760;48.822;9.304;2023-06-04T09:39:57;34.30;44.90
1534;DHT22;760;48.822;9.304;2023-06-04T09:42:23;34.40;45.00
1534;DHT22;760;48.822;9.304;2023-06-04T09:44:49;34.60;44.70
1534;DHT22;760;48.822;9.304;2023-06-04T09:47:15;35.00;44.00
1534;DHT22;760;48.822;9.304;2023-06-04T09:49:42;35.20;43.00
1534;DHT22;760;48.822;9.304;2023-06-04T09:52:08;35.00;43.20
1534;DHT22;760;48.822;9.304;2023-06-04T09:54:37;35.30;43.10
1534;DHT22;760;48.822;9.304;2023-06-04T09:57:16;35.80;43.60
1534;DHT22;760;48.822;9.304;2023-06-04T09:59:50;36.30;42.80
1534;DHT22;760;48.822;9.304;2023-06-04T10:02:20;36.50;42.50
1534;DHT22;760;48.822;9.304;2023-06-04T10:04:55;36.20;42.10
1534;DHT22;760;48.822;9.304;2023-06-04T10:07:25;36.00;42.30
1534;DHT22;760;48.822;9.304;2023-06-04T10:09:54;36.10;42.60
1534;DHT22;760;48.822;9.304;2023-06-04T10:12:25;35.90;42.10
1534;DHT22;760;48.822;9.304;2023-06-04T10:14:54;35.70;42.20
1534;DHT22;760;48.822;9.304;2023-06-04T10:17:23;35.80;42.90
1534;DHT22;760;48.822;9.304;2023-06-04T10:19:50;35.80;44.00
1534;DHT22;760;48.822;9.304;2023-06-04T10:22:20;35.70;42.40
1534;DHT22;760;48.822;9.304;2023-06-04T10:24:46;35.70;42.40
1534;DHT22;760;48.822;9.304;2023-06-04T10:27:12;35.50;42.30
1534;DHT22;760;48.822;9.304;2023-06-04T10:29:38;35.60;42.80
1534;DHT22;760;48.822;9.304;2023-06-04T10:32:05;35.70;42.00
1534;DHT22;760;48.822;9.304;2023-06-04T10:34:31;36.00;41.80
1534;DHT22;760;48.822;9.304;2023-06-04T10:36:57;35.80;41.70
1534;DHT22;760;48.822;9.304;2023-06-04T10:39:29;35.20;42.00
1534;DHT22;760;48.822;9.304;2023-06-04T10:42:04;34.60;42.60
1534;DHT22;760;48.822;9.304;2023-06-04T10:44:49;34.50;42.30
1534;DHT22;760;48.822;9.304;2023-06-04T10:47:23;33.90;43.00
1534;DHT22;760;48.822;9.304;2023-06-04T10:49:52;33.30;43.50
1534;DHT22;760;48.822;9.304;2023-06-04T10:52:19;33.10;43.50
1534;DHT22;760;48.822;9.304;2023-06-04T10:54:46;32.70;43.90
1534;DHT22;760;48.822;9.304;2023-06-04T10:57:18;32.60;45.30
1534;DHT22;760;48.822;9.304;2023-06-04T11:00:00;32.80;43.90
1534;DHT22;760;48.822;9.304;2023-06-04T11:02:28;32.60;43.70
1534;DHT22;760;48.822;9.304;2023-06-04T11:07:42;32.30;43.60
1534;DHT22;760;48.822;9.304;2023-06-04T11:10:12;31.90;44.30
1534;DHT22;760;48.822;9.304;2023-06-04T11:12:45;31.50;44.80
1534;DHT22;760;48.822;9.304;2023-06-04T11:15:12;30.70;45.20
1534;DHT22;760;48.822;9.304;2023-06-04T11:17:48;29.70;45.60
1534;DHT22;760;48.822;9.304;2023-06-04T11:20:18;28.90;46.30
1534;DHT22;760;48.822;9.304;2023-06-04T11:22:57;28.00;48.20
1534;DHT22;760;48.822;9.304;2023-06-04T11:25:24;27.50;48.30
1534;DHT22;760;48.822;9.304;2023-06-04T11:27:52;27.00;49.80
1534;DHT22;760;48.822;9.304;2023-06-04T11:30:18;26.70;49.30
1534;DHT22;760;48.822;9.304;2023-06-04T11:32:44;26.50;50.10
1534;DHT22;760;48.822;9.304;2023-06-04T11:35:10;26.40;49.80
1534;DHT22;760;48.822;9.304;2023-06-04T11:37:37;26.30;49.80
1534;DHT22;760;48.822;9.304;2023-06-04T11:40:14;26.10;50.30
1534;DHT22;760;48.822;9.304;2023-06-04T11:42:40;25.90;50.10
1534;DHT22;760;48.822;9.304;2023-06-04T11:45:11;25.70;51.50
1534;DHT22;760;48.822;9.304;2023-06-04T11:47:37;25.50;50.90
1534;DHT22;760;48.822;9.304;2023-06-04T11:50:03;25.50;50.80
1534;DHT22;760;48.822;9.304;2023-06-04T11:52:29;25.40;51.50
1534;DHT22;760;48.822;9.304;2023-06-04T11:54:55;25.30;51.50
1534;DHT22;760;48.822;9.304;2023-06-04T11:57:21;25.40;51.50
1534;DHT22;760;48.822;9.304;2023-06-04T11:59:47;25.40;51.30
1534;DHT22;760;48.822;9.304;2023-06-04T12:02:13;25.40;52.10
1534;DHT22;760;48.822;9.304;2023-06-04T12:04:38;25.40;51.90
1534;DHT22;760;48.822;9.304;2023-06-04T12:07:04;25.40;51.50
1534;DHT22;760;48.822;9.304;2023-06-04T12:09:32;25.40;51.90
1534;DHT22;760;48.822;9.304;2023-06-04T12:12:02;25.40;51.80
1534;DHT22;760;48.822;9.304;2023-06-04T12:14:28;25.50;51.80
1534;DHT22;760;48.822;9.304;2023-06-04T12:17:01;25.50;52.60
1534;DHT22;760;48.822;9.304;2023-06-04T12:19:27;25.60;52.10
1534;DHT22;760;48.822;9.304;2023-06-04T12:22:05;25.60;52.30
1534;DHT22;760;48.822;9.304;2023-06-04T12:24:32;25.70;51.50
1534;DHT22;760;48.822;9.304;2023-06-04T12:27:07;25.40;51.60
1534;DHT22;760;48.822;9.304;2023-06-04T12:29:36;25.30;52.30
1534;DHT22;760;48.822;9.304;2023-06-04T12:32:09;25.20;51.80
1534;DHT22;760;48.822;9.304;2023-06-04T12:34:37;25.20;52.40
1534;DHT22;760;48.822;9.304;2023-06-04T12:37:03;25.30;54.50
1534;DHT22;760;48.822;9.304;2023-06-04T12:39:31;25.50;51.80
1534;DHT22;760;48.822;9.304;2023-06-04T12:41:57;25.50;52.00
1534;DHT22;760;48.822;9.304;2023-06-04T12:44:23;25.50;50.80
1534;DHT22;760;48.822;9.304;2023-06-04T12:46:48;25.50;50.80
1534;DHT22;760;48.822;9.304;2023-06-04T12:49:14;25.40;51.40
1534;DHT22;760;48.822;9.304;2023-06-04T12:51:39;25.50;51.50
1534;DHT22;760;48.822;9.304;2023-06-04T12:54:05;25.40;51.20
1534;DHT22;760;48.822;9.304;2023-06-04T12:56:30;25.40;50.90
1534;DHT22;760;48.822;9.304;2023-06-04T12:58:56;25.40;51.10
1534;DHT22;760;48.822;9.304;2023-06-04T13:01:22;25.40;50.80
1534;DHT22;760;48.822;9.304;2023-06-04T13:03:48;25.40;50.40
1534;DHT22;760;48.822;9.304;2023-06-04T13:06:13;25.40;49.90
1534;DHT22;760;48.822;9.304;2023-06-04T13:08:39;25.40;49.40
1534;DHT22;760;48.822;9.304;2023-06-04T13:11:05;25.40;50.50
1534;DHT22;760;48.822;9.304;2023-06-04T13:13:31;25.40;49.80
1534;DHT22;760;48.822;9.304;2023-06-04T13:15:57;25.40;50.20
1534;DHT22;760;48.822;9.304;2023-06-04T13:18:23;25.40;50.60
1534;DHT22;760;48.822;9.304;2023-06-04T13:20:48;25.40;51.20
1534;DHT22;760;48.822;9.304;2023-06-04T13:23:14;25.50;50.60
1534;DHT22;760;48.822;9.304;2023-06-04T13:25:40;25.60;50.50
1534;DHT22;760;48.822;9.304;2023-06-04T13:28:06;25.60;50.30
1534;DHT22;760;48.822;9.304;2023-06-04T13:30:36;25.60;50.30
1534;DHT22;760;48.822;9.304;2023-06-04T13:33:05;25.50;50.50
1534;DHT22;760;48.822;9.304;2023-06-04T13:35:31;25.40;51.10
1534;DHT22;760;48.822;9.304;2023-06-04T13:37:57;25.40;51.00
1534;DHT22;760;48.822;9.304;2023-06-04T13:40:22;25.40;51.40
1534;DHT22;760;48.822;9.304;2023-06-04T13:42:48;25.50;50.70
1534;DHT22;760;48.822;9.304;2023-06-04T13:45:14;25.50;51.20
1534;DHT22;760;48.822;9.304;2023-06-04T13:47:39;25.60;49.80
1534;DHT22;760;48.822;9.304;2023-06-04T13:50:05;25.60;49.80
1534;DHT22;760;48.822;9.304;2023-06-04T13:52:31;25.50;49.40
1534;DHT22;760;48.822;9.304;2023-06-04T13:54:57;25.50;49.00
1534;DHT22;760;48.822;9.304;2023-06-04T13:57:27;25.40;48.60
1534;DHT22;760;48.822;9.304;2023-06-04T13:59:53;25.40;48.80
1534;DHT22;760;48.822;9.304;2023-06-04T14:02:19;25.30;49.20
1534;DHT22;760;48.822;9.304;2023-06-04T14:04:44;25.30;49.20
1534;DHT22;760;48.822;9.304;2023-06-04T14:07:10;25.30;49.30
1534;DHT22;760;48.822;9.304;2023-06-04T14:09:36;25.30;48.90
1534;DHT22;760;48.822;9.304;2023-06-04T14:12:02;25.30;48.60
1534;DHT22;760;48.822;9.304;2023-06-04T14:14:28;25.30;48.00
1534;DHT22;760;48.822;9.304;2023-06-04T14:17:05;25.20;48.20
1534;DHT22;760;48.822;9.304;2023-06-04T14:19:32;25.10;48.40
1534;DHT22;760;48.822;9.304;2023-06-04T14:21:58;25.10;49.30
1534;DHT22;760;48.822;9.304;2023-06-04T14:24:23;25.10;48.70
1534;DHT22;760;48.822;9.304;2023-06-04T14:26:49;25.10;48.20
1534;DHT22;760;48.822;9.304;2023-06-04T14:29:15;25.00;49.10
1534;DHT22;760;48.822;9.304;2023-06-04T14:31:41;25.00;49.40
1534;DHT22;760;48.822;9.304;2023-06-04T14:34:06;25.10;48.90
1534;DHT22;760;48.822;9.304;2023-06-04T14:36:33;25.10;49.00
1534;DHT22;760;48.822;9.304;2023-06-04T14:38:59;25.20;49.60
1534;DHT22;760;48.822;9.304;2023-06-04T14:41:25;25.30;49.40
1534;DHT22;760;48.822;9.304;2023-06-04T14:43:52;25.30;48.20
1534;DHT22;760;48.822;9.304;2023-06-04T14:46:18;25.30;48.60
1534;DHT22;760;48.822;9.304;2023-06-04T14:48:43;25.40;48.50
1534;DHT22;760;48.822;9.304;2023-06-04T14:51:09;25.40;48.00
1534;DHT22;760;48.822;9.304;2023-06-04T14:53:35;25.40;47.50
1534;DHT22;760;48.822;9.304;2023-06-04T14:56:04;25.30;47.80
1534;DHT22;760;48.822;9.304;2023-06-04T14:58:30;25.20;47.90
1534;DHT22;760;48.822;9.304;2023-06-04T15:00:56;25.10;48.90
1534;DHT22;760;48.822;9.304;2023-06-04T15:03:25;25.10;48.50
1534;DHT22;760;48.822;9.304;2023-06-04T15:05:51;25.00;48.20
1534;DHT22;760;48.822;9.304;2023-06-04T15:08:17;25.00;48.70
1534;DHT22;760;48.822;9.304;2023-06-04T15:10:43;24.90;48.60
1534;DHT22;760;48.822;9.304;2023-06-04T15:13:08;24.90;48.60
1534;DHT22;760;48.822;9.304;2023-06-04T15:15:34;24.90;48.40
1534;DHT22;760;48.822;9.304;2023-06-04T15:18:00;24.80;48.10
1534;DHT22;760;48.822;9.304;2023-06-04T15:20:26;24.80;48.40
1534;DHT22;760;48.822;9.304;2023-06-04T15:22:53;24.80;48.70
1534;DHT22;760;48.822;9.304;2023-06-04T15:25:19;24.80;48.60
1534;DHT22;760;48.822;9.304;2023-06-04T15:27:44;24.80;49.00
1534;DHT22;760;48.822;9.304;2023-06-04T15:30:10;24.90;49.30
1534;DHT22;760;48.822;9.304;2023-06-04T15:32:36;24.80;48.60
1534;DHT22;760;48.822;9.304;2023-06-04T15:35:03;24.90;48.30
1534;DHT22;760;48.822;9.304;2023-06-04T15:37:29;24.90;48.60
1534;DHT22;760;48.822;9.304;2023-06-04T15:39:54;24.90;49.30
1534;DHT22;760;48.822;9.304;2023-06-04T15:42:23;24.90;49.30
1534;DHT22;760;48.822;9.304;2023-06-04T15:44:48;24.90;49.50
1534;DHT22;760;48.822;9.304;2023-06-04T15:47:14;24.80;48.80
1534;DHT22;760;48.822;9.304;2023-06-04T15:49:40;24.90;49.10
1534;DHT22;760;48.822;9.304;2023-06-04T15:52:06;24.80;49.00
1534;DHT22;760;48.822;9.304;2023-06-04T15:54:32;24.90;49.20
1534;DHT22;760;48.822;9.304;2023-06-04T15:56:58;24.80;49.20
1534;DHT22;760;48.822;9.304;2023-06-04T15:59:23;24.80;49.00
1534;DHT22;760;48.822;9.304;2023-06-04T16:01:50;24.80;49.10
1534;DHT22;760;48.822;9.304;2023-06-04T16:04:16;24.80;49.20
1534;DHT22;760;48.822;9.304;2023-06-04T16:06:42;24.70;49.10
1534;DHT22;760;48.822;9.304;2023-06-04T16:09:07;24.70;49.30
1534;DHT22;760;48.822;9.304;2023-06-04T16:11:33;24.70;49.70
1534;DHT22;760;48.822;9.304;2023-06-04T16:14:03;24.70;49.80
1534;DHT22;760;48.822;9.304;2023-06-04T16:16:29;24.70;49.90
1534;DHT22;760;48.822;9.304;2023-06-04T16:18:56;24.70;49.60
1534;DHT22;760;48.822;9.304;2023-06-04T16:21:22;24.70;49.90
1534;DHT22;760;48.822;9.304;2023-06-04T16:23:47;24.60;50.00
1534;DHT22;760;48.822;9.304;2023-06-04T16:26:13;24.60;50.20
1534;DHT22;760;48.822;9.304;2023-06-04T16:28:40;24.60;50.20
1534;DHT22;760;48.822;9.304;2023-06-04T16:31:06;24.60;50.20
1534;DHT22;760;48.822;9.304;2023-06-04T16:33:31;24.70;50.50
1534;DHT22;760;48.822;9.304;2023-06-04T16:35:57;24.70;50.50
1534;DHT22;760;48.822;9.304;2023-06-04T16:38:22;24.70;50.60
1534;DHT22;760;48.822;9.304;2023-06-04T16:40:48;24.70;50.30
1534;DHT22;760;48.822;9.304;2023-06-04T16:43:14;24.70;50.10
1534;DHT22;760;48.822;9.304;2023-06-04T16:45:41;24.60;50.10
1534;DHT22;760;48.822;9.304;2023-06-04T16:48:06;24.60;50.30
1534;DHT22;760;48.822;9.304;2023-06-04T16:50:32;24.60;50.20
1534;DHT22;760;48.822;9.304;2023-06-04T16:52:59;24.50;50.30
1534;DHT22;760;48.822;9.304;2023-06-04T16:55:32;24.50;50.50
1534;DHT22;760;48.822;9.304;2023-06-04T16:57:59;24.50;50.70
1534;DHT22;760;48.822;9.304;2023-06-04T17:00:24;24.50;50.70
1534;DHT22;760;48.822;9.304;2023-06-04T17:02:50;24.50;50.80
1534;DHT22;760;48.822;9.304;2023-06-04T17:05:16;24.50;51.30
1534;DHT22;760;48.822;9.304;2023-06-04T17:07:44;24.40;51.10
1534;DHT22;760;48.822;9.304;2023-06-04T17:10:10;24.40;50.80
1534;DHT22;760;48.822;9.304;2023-06-04T17:12:37;24.40;50.70
1534;DHT22;760;48.822;9.304;2023-06-04T17:15:03;24.40;50.90
1534;DHT22;760;48.822;9.304;2023-06-04T17:17:29;24.40;51.10
1534;DHT22;760;48.822;9.304;2023-06-04T17:19:54;24.40;50.50
1534;DHT22;760;48.822;9.304;2023-06-04T17:22:20;24.40;50.90
1534;DHT22;760;48.822;9.304;2023-06-04T17:24:46;24.40;50.50
1534;DHT22;760;48.822;9.304;2023-06-04T17:27:11;24.30;50.30
1534;DHT22;760;48.822;9.304;2023-06-04T17:29:37;24.30;50.30
1534;DHT22;760;48.822;9.304;2023-06-04T17:32:03;24.30;50.50
1534;DHT22;760;48.822;9.304;2023-06-04T17:34:29;24.20;50.20
1534;DHT22;760;48.822;9.304;2023-06-04T17:36:55;24.20;50.30
1534;DHT22;760;48.822;9.304;2023-06-04T17:39:20;24.20;49.80
1534;DHT22;760;48.822;9.304;2023-06-04T17:41:46;24.10;50.00
1534;DHT22;760;48.822;9.304;2023-06-04T17:44:11;24.10;50.30
1534;DHT22;760;48.822;9.304;2023-06-04T17:46:37;24.00;50.30
1534;DHT22;760;48.822;9.304;2023-06-04T17:49:03;24.00;50.50
1534;DHT22;760;48.822;9.304;2023-06-04T17:51:29;24.00;50.30
1534;DHT22;760;48.822;9.304;2023-06-04T17:53:55;23.90;50.60
1534;DHT22;760;48.822;9.304;2023-06-04T17:56:21;23.90;50.30
1534;DHT22;760;48.822;9.304;2023-06-04T17:58:46;23.90;50.10
1534;DHT22;760;48.822;9.304;2023-06-04T18:01:12;23.90;49.80
1534;DHT22;760;48.822;9.304;2023-06-04T18:03:37;23.80;49.80
1534;DHT22;760;48.822;9.304;2023-06-04T18:06:04;23.80;49.80
1534;DHT22;760;48.822;9.304;2023-06-04T18:08:29;23.80;50.20
1534;DHT22;760;48.822;9.304;2023-06-04T18:10:56;23.70;50.30
1534;DHT22;760;48.822;9.304;2023-06-04T18:13:21;23.60;50.20
1534;DHT22;760;48.822;9.304;2023-06-04T18:15:47;23.60;50.30
1534;DHT22;760;48.822;9.304;2023-06-04T18:18:13;23.50;50.40
1534;DHT22;760;48.822;9.304;2023-06-04T18:20:39;23.50;50.50
1534;DHT22;760;48.822;9.304;2023-06-04T18:23:06;23.50;50.40
1534;DHT22;760;48.822;9.304;2023-06-04T18:25:32;23.40;50.60
1534;DHT22;760;48.822;9.304;2023-06-04T18:27:58;23.30;50.40
1534;DHT22;760;48.822;9.304;2023-06-04T18:30:23;23.30;50.60
1534;DHT22;760;48.822;9.304;2023-06-04T18:32:49;23.20;50.90
1534;DHT22;760;48.822;9.304;2023-06-04T18:35:15;23.20;51.10
1534;DHT22;760;48.822;9.304;2023-06-04T18:37:41;23.20;51.20
1534;DHT22;760;48.822;9.304;2023-06-04T18:40:08;23.10;51.10
1534;DHT22;760;48.822;9.304;2023-06-04T18:42:33;23.00;51.20
1534;DHT22;760;48.822;9.304;2023-06-04T18:44:59;23.00;51.30
1534;DHT22;760;48.822;9.304;2023-06-04T18:47:25;22.90;51.30
1534;DHT22;760;48.822;9.304;2023-06-04T18:49:51;22.90;51.40
1534;DHT22;760;48.822;9.304;2023-06-04T18:52:16;22.80;51.30
1534;DHT22;760;48.822;9.304;2023-06-04T18:54:42;22.70;51.50
1534;DHT22;760;48.822;9.304;2023-06-04T18:57:10;22.70;51.70
1534;DHT22;760;48.822;9.304;2023-06-04T18:59:38;22.60;52.00
1534;DHT22;760;48.822;9.304;2023-06-04T19:02:04;22.50;52.30
1534;DHT22;760;48.822;9.304;2023-06-04T19:04:29;22.40;52.40
1534;DHT22;760;48.822;9.304;2023-06-04T19:06:55;22.30;52.90
1534;DHT22;760;48.822;9.304;2023-06-04T19:09:20;22.20;53.10
1534;DHT22;760;48.822;9.304;2023-06-04T19:11:46;22.20;53.40
1534;DHT22;760;48.822;9.304;2023-06-04T19:14:11;22.10;53.70
1534;DHT22;760;48.822;9.304;2023-06-04T19:16:37;22.00;54.10
1534;DHT22;760;48.822;9.304;2023-06-04T19:19:03;21.90;54.20
1534;DHT22;760;48.822;9.304;2023-06-04T19:21:32;21.80;54.50
1534;DHT22;760;48.822;9.304;2023-06-04T19:23:58;21.60;54.80
1534;DHT22;760;48.822;9.304;2023-06-04T19:26:23;21.50;55.00
1534;DHT22;760;48.822;9.304;2023-06-04T19:28:49;21.40;55.40
1534;DHT22;760;48.822;9.304;2023-06-04T19:31:15;21.30;55.60
1534;DHT22;760;48.822;9.304;2023-06-04T19:33:40;21.30;55.80
1534;DHT22;760;48.822;9.304;2023-06-04T19:36:06;21.20;55.90
1534;DHT22;760;48.822;9.304;2023-06-04T19:38:32;21.10;56.10
1534;DHT22;760;48.822;9.304;2023-06-04T19:40:57;21.00;56.20
1534;DHT22;760;48.822;9.304;2023-06-04T19:43:23;20.90;56.30
1534;DHT22;760;48.822;9.304;2023-06-04T19:45:48;20.90;56.50
1534;DHT22;760;48.822;9.304;2023-06-04T19:48:21;20.80;56.60
1534;DHT22;760;48.822;9.304;2023-06-04T19:50:47;20.70;56.80
1534;DHT22;760;48.822;9.304;2023-06-04T19:53:13;20.60;56.90
1534;DHT22;760;48.822;9.304;2023-06-04T19:55:38;20.60;57.10
1534;DHT22;760;48.822;9.304;2023-06-04T19:58:04;20.50;57.30
1534;DHT22;760;48.822;9.304;2023-06-04T20:00:30;20.40;57.40
1534;DHT22;760;48.822;9.304;2023-06-04T20:02:56;20.30;57.40
1534;DHT22;760;48.822;9.304;2023-06-04T20:05:21;20.30;57.40
1534;DHT22;760;48.822;9.304;2023-06-04T20:07:47;20.20;57.50
1534;DHT22;760;48.822;9.304;2023-06-04T20:10:14;20.10;57.60
1534;DHT22;760;48.822;9.304;2023-06-04T20:12:40;20.00;57.70
1534;DHT22;760;48.822;9.304;2023-06-04T20:15:06;19.90;57.90
1534;DHT22;760;48.822;9.304;2023-06-04T20:17:32;19.80;58.20
1534;DHT22;760;48.822;9.304;2023-06-04T20:19:57;19.70;58.50
1534;DHT22;760;48.822;9.304;2023-06-04T20:22:23;19.60;58.80